createdAt,value
2017-11-20T00:00:24.451Z,7.00
2017-11-20T00:02:52.846Z,7.03
2017-11-20T00:05:20.434Z,7.87
2017-11-20T00:07:48.011Z,6.77
2017-11-20T00:10:15.724Z,7.10
2017-11-20T00:12:44.087Z,6.80
2017-11-20T00:15:11.653Z,6.40
2017-11-20T00:17:39.256Z,7.87
2017-11-20T00:20:06.826Z,5.70
2017-11-20T00:22:34.416Z,6.10
2017-11-20T00:25:02.028Z,5.63
2017-11-20T00:27:29.597Z,7.17
2017-11-20T00:29:57.275Z,5.70
2017-11-20T00:32:24.845Z,5.80
2017-11-20T00:34:52.425Z,6.23
2017-11-20T00:37:19.984Z,6.20
2017-11-20T00:39:47.566Z,5.63
2017-11-20T00:42:15.126Z,6.00
2017-11-20T00:44:42.795Z,5.20
2017-11-20T00:47:10.403Z,5.77
2017-11-20T00:49:38.635Z,6.20
2017-11-20T00:52:06.978Z,5.50
2017-11-20T00:54:34.552Z,6.00
2017-11-20T00:57:02.582Z,5.90
2017-11-20T00:59:30.171Z,6.27
2017-11-20T01:01:58.667Z,7.20
2017-11-20T01:04:26.227Z,7.20
2017-11-20T01:06:53.812Z,6.53
2017-11-20T01:09:21.498Z,7.30
2017-11-20T01:11:49.082Z,6.77
2017-11-20T01:14:16.826Z,6.40
2017-11-20T01:16:44.393Z,6.60
2017-11-20T01:19:11.960Z,7.80
2017-11-20T01:21:39.627Z,8.00
2017-11-20T01:24:07.194Z,7.47
2017-11-20T01:26:34.767Z,7.50
2017-11-20T01:29:02.379Z,7.57
2017-11-20T01:31:30.739Z,6.80
2017-11-20T01:33:58.304Z,6.90
2017-11-20T01:36:25.867Z,7.70
2017-11-20T01:38:54.414Z,7.47
2017-11-20T01:41:21.980Z,7.37
2017-11-20T01:43:49.539Z,7.50
2017-11-20T01:46:17.268Z,7.73
2017-11-20T01:48:44.840Z,7.30
2017-11-20T01:51:12.417Z,7.87
2017-11-20T01:53:39.970Z,7.67
2017-11-20T01:56:07.540Z,7.90
2017-11-20T01:58:35.163Z,7.30
2017-11-20T02:01:02.794Z,8.80
2017-11-20T02:03:30.372Z,9.83
2017-11-20T02:05:58.688Z,10.40
2017-11-20T02:08:26.258Z,11.63
2017-11-20T02:10:53.828Z,12.10
2017-11-20T02:13:21.416Z,10.87
2017-11-20T02:15:49.012Z,11.90
2017-11-20T02:18:16.890Z,13.27
2017-11-20T02:20:44.495Z,15.00
2017-11-20T02:23:12.062Z,15.77
2017-11-20T02:25:39.633Z,13.40
2017-11-20T02:28:07.254Z,16.63
2017-11-20T02:30:34.811Z,14.97
2017-11-20T02:33:02.380Z,15.13
2017-11-20T02:35:29.947Z,16.50
2017-11-20T02:37:57.563Z,14.70
2017-11-20T02:40:25.130Z,14.40
2017-11-20T02:42:52.806Z,14.70
2017-11-20T02:45:20.370Z,16.80
2017-11-20T02:47:47.948Z,15.50
2017-11-20T02:50:15.523Z,16.50
2017-11-20T02:52:43.130Z,16.50
2017-11-20T02:55:10.697Z,16.30
2017-11-20T02:57:38.283Z,15.27
2017-11-20T03:00:05.844Z,16.63
2017-11-20T03:02:33.398Z,14.83
2017-11-20T03:05:01.728Z,14.53
2017-11-20T03:07:30.051Z,15.83
2017-11-20T03:09:57.635Z,16.67
2017-11-20T03:12:25.244Z,17.30
2017-11-20T03:14:53.594Z,13.03
2017-11-20T03:17:21.179Z,14.83
2017-11-20T03:19:49.520Z,14.40
2017-11-20T03:22:17.087Z,14.23
2017-11-20T03:24:44.754Z,14.50
2017-11-20T03:27:12.351Z,14.80
2017-11-20T03:29:39.920Z,14.00
2017-11-20T03:32:07.484Z,14.13
2017-11-20T03:34:35.363Z,13.33
2017-11-20T03:37:02.967Z,13.47
2017-11-20T03:39:30.537Z,11.93
2017-11-20T03:41:58.099Z,13.00
2017-11-20T03:44:25.661Z,13.77
2017-11-20T03:46:53.251Z,12.93
2017-11-20T03:49:20.816Z,13.73
2017-11-20T03:51:48.403Z,12.90
2017-11-20T03:54:15.961Z,14.60
2017-11-20T03:56:44.307Z,13.77
2017-11-20T03:59:12.199Z,13.37
2017-11-20T04:01:39.767Z,13.20
2017-11-20T04:04:07.325Z,12.87
2017-11-20T04:06:35.731Z,12.07
2017-11-20T04:09:03.391Z,12.00
2017-11-20T04:11:30.963Z,11.60
2017-11-20T04:13:58.552Z,12.00
2017-11-20T04:16:26.917Z,11.63
2017-11-20T04:18:54.515Z,11.27
2017-11-20T04:21:22.062Z,10.73
2017-11-20T04:23:49.647Z,10.53
2017-11-20T04:26:17.229Z,10.20
2017-11-20T04:28:44.794Z,9.87
2017-11-20T04:31:12.359Z,10.23
2017-11-20T04:33:39.967Z,8.27
2017-11-20T04:36:07.527Z,8.20
2017-11-20T04:38:35.101Z,9.67
2017-11-20T04:41:02.776Z,9.60
2017-11-20T04:43:30.365Z,9.93
2017-11-20T04:45:57.918Z,10.23
2017-11-20T04:48:25.507Z,9.40
2017-11-20T04:50:53.066Z,10.10
2017-11-20T04:53:20.645Z,8.73
2017-11-20T04:55:49.080Z,9.13
2017-11-20T04:58:16.682Z,10.33
2017-11-20T05:00:45.016Z,8.37
2017-11-20T05:03:12.559Z,9.23
2017-11-20T05:05:40.138Z,9.30
2017-11-20T05:08:07.703Z,10.23
2017-11-20T05:10:35.278Z,9.00
2017-11-20T05:13:02.854Z,8.03
2017-11-20T05:15:32.314Z,8.00
2017-11-20T05:17:59.908Z,8.67
2017-11-20T05:20:27.463Z,7.33
2017-11-20T05:22:55.035Z,7.43
2017-11-20T05:25:22.597Z,7.47
2017-11-20T05:27:50.168Z,6.73
2017-11-20T05:30:18.497Z,7.60
2017-11-20T05:32:46.079Z,7.80
2017-11-20T05:35:13.650Z,7.80
2017-11-20T05:37:41.239Z,7.00
2017-11-20T05:40:09.570Z,7.43
2017-11-20T05:42:37.166Z,7.37
2017-11-20T05:45:04.735Z,8.60
2017-11-20T05:47:33.064Z,7.80
2017-11-20T05:50:00.703Z,7.80
2017-11-20T05:52:28.289Z,9.07
2017-11-20T05:54:55.884Z,6.37
2017-11-20T05:57:23.451Z,8.20
2017-11-20T05:59:51.040Z,7.63
2017-11-20T06:02:18.595Z,6.90
2017-11-20T06:04:46.195Z,8.10
2017-11-20T06:07:13.782Z,7.57
2017-11-20T06:09:41.363Z,7.73
2017-11-20T06:12:08.944Z,8.23
2017-11-20T06:14:36.535Z,6.97
2017-11-20T06:17:04.080Z,9.80
2017-11-20T06:19:31.664Z,8.13
2017-11-20T06:21:59.235Z,7.20
2017-11-20T06:24:26.815Z,8.70
2017-11-20T06:26:54.387Z,8.70
2017-11-20T06:29:22.719Z,7.97
2017-11-20T06:31:50.314Z,7.87
2017-11-20T06:34:17.872Z,8.70
2017-11-20T06:36:45.803Z,8.93
2017-11-20T06:39:14.138Z,7.90
2017-11-20T06:41:42.500Z,9.07
2017-11-20T06:44:10.589Z,13.00
2017-11-20T06:46:41.670Z,13.00
2017-11-20T06:49:09.631Z,9.07
2017-11-20T06:51:37.209Z,8.27
2017-11-20T06:54:04.824Z,9.10
2017-11-20T06:56:33.141Z,8.87
2017-11-20T06:59:01.487Z,9.17
2017-11-20T07:01:29.813Z,8.70
2017-11-20T07:03:57.383Z,10.03
2017-11-20T07:06:24.955Z,10.40
2017-11-20T07:08:52.532Z,9.93
2017-11-20T07:11:20.113Z,9.87
2017-11-20T07:13:48.519Z,9.10
2017-11-20T07:16:16.115Z,9.50
2017-11-20T07:18:46.058Z,12.67
2017-11-20T07:21:14.781Z,10.47
2017-11-20T07:23:44.108Z,13.00
2017-11-20T07:26:24.519Z,12.60
2017-11-20T07:29:15.806Z,13.40
2017-11-20T07:31:47.295Z,11.27
2017-11-20T07:34:38.854Z,12.37
2017-11-20T07:37:30.453Z,9.90
2017-11-20T07:40:09.867Z,9.47
2017-11-20T07:42:38.219Z,8.93
2017-11-20T07:45:06.971Z,8.20
2017-11-20T07:47:34.536Z,10.50
2017-11-20T07:50:02.125Z,9.10
2017-11-20T07:52:29.675Z,9.03
2017-11-20T07:54:57.244Z,9.10
2017-11-20T07:57:24.802Z,9.40
2017-11-20T07:59:52.383Z,8.30
2017-11-20T08:02:19.962Z,8.80
2017-11-20T08:04:48.285Z,7.43
2017-11-20T08:07:15.867Z,5.70
2017-11-20T08:09:43.446Z,5.40
2017-11-20T08:12:11.005Z,5.40
2017-11-20T08:14:39.390Z,5.30
2017-11-20T08:17:06.994Z,5.40
2017-11-20T08:19:34.562Z,5.00
2017-11-20T08:22:02.530Z,6.07
2017-11-20T08:24:30.144Z,8.00
2017-11-20T08:26:57.752Z,8.20
2017-11-20T08:29:25.374Z,9.47
2017-11-20T08:31:53.744Z,10.00
2017-11-20T08:34:22.112Z,10.50
2017-11-20T08:36:49.682Z,9.97
2017-11-20T08:39:17.261Z,10.87
2017-11-20T08:41:45.672Z,11.30
2017-11-20T08:44:13.248Z,10.13
2017-11-20T08:46:40.824Z,11.90
2017-11-20T08:49:17.090Z,14.07
2017-11-20T08:51:48.882Z,13.50
2017-11-20T08:54:17.247Z,10.40
2017-11-20T08:56:44.953Z,10.00
2017-11-20T08:59:12.580Z,12.90
2017-11-20T09:01:41.167Z,10.93
2017-11-20T09:04:09.518Z,8.93
2017-11-20T09:06:37.130Z,10.17
2017-11-20T09:09:05.468Z,9.63
2017-11-20T09:11:33.068Z,10.37
2017-11-20T09:14:00.650Z,11.00
2017-11-20T09:16:28.277Z,9.97
2017-11-20T09:18:56.620Z,12.73
2017-11-20T09:21:24.225Z,11.63
2017-11-20T09:23:52.632Z,11.60
2017-11-20T09:26:30.949Z,14.07
2017-11-20T09:29:01.553Z,13.67
2017-11-20T09:31:29.255Z,9.17
2017-11-20T09:33:56.856Z,10.83
2017-11-20T09:36:24.431Z,10.80
2017-11-20T09:38:52.839Z,11.30
2017-11-20T09:41:20.443Z,8.70
2017-11-20T09:43:48.023Z,10.27
2017-11-20T09:46:16.395Z,9.83
2017-11-20T09:48:43.983Z,9.43
2017-11-20T09:51:11.572Z,8.33
2017-11-20T09:53:39.159Z,9.27
2017-11-20T09:56:06.729Z,8.50
2017-11-20T09:58:34.303Z,9.27
2017-11-20T10:01:01.897Z,7.67
2017-11-20T10:03:29.489Z,7.90
2017-11-20T10:05:57.067Z,7.87
2017-11-20T10:08:24.635Z,9.27
2017-11-20T10:10:52.218Z,6.70
2017-11-20T10:13:20.726Z,7.60
2017-11-20T10:15:48.262Z,6.90
2017-11-20T10:18:16.647Z,7.57
2017-11-20T10:20:44.955Z,5.90
2017-11-20T10:23:12.544Z,6.00
2017-11-20T10:25:40.121Z,5.83
2017-11-20T10:28:07.784Z,6.17
2017-11-20T10:30:35.317Z,5.97
2017-11-20T10:33:02.921Z,5.60
2017-11-20T10:35:31.253Z,5.63
2017-11-20T10:37:58.815Z,5.50
2017-11-20T10:40:26.387Z,6.57
2017-11-20T10:42:53.967Z,7.80
2017-11-20T10:45:21.541Z,7.23
2017-11-20T10:47:49.114Z,7.30
2017-11-20T10:50:17.447Z,6.80
2017-11-20T10:52:45.029Z,7.33
2017-11-20T10:55:12.589Z,6.60
2017-11-20T10:57:40.195Z,7.63
2017-11-20T11:00:18.241Z,9.50
2017-11-20T11:02:46.620Z,8.10
2017-11-20T11:05:14.205Z,8.00
2017-11-20T11:07:41.758Z,7.03
2017-11-20T11:10:09.334Z,7.10
2017-11-20T11:12:37.680Z,6.73
2017-11-20T11:15:05.251Z,7.63
2017-11-20T11:17:32.927Z,6.97
2017-11-20T11:20:00.679Z,7.27
2017-11-20T11:22:28.227Z,6.10
2017-11-20T11:24:55.820Z,6.13
2017-11-20T11:27:24.125Z,6.50
2017-11-20T11:29:51.787Z,6.80
2017-11-20T11:32:19.390Z,6.37
2017-11-20T11:34:47.156Z,8.07
2017-11-20T11:37:22.375Z,6.50
2017-11-20T11:39:54.895Z,7.93
2017-11-20T11:42:23.237Z,6.03
2017-11-20T11:44:50.820Z,6.03
2017-11-20T11:47:18.439Z,5.10
2017-11-20T11:49:46.016Z,6.07
2017-11-20T11:52:13.580Z,6.50
2017-11-20T11:54:42.123Z,7.53
2017-11-20T11:57:10.435Z,7.70
2017-11-20T11:59:38.089Z,6.73
2017-11-20T12:02:05.650Z,5.00
2017-11-20T12:04:33.228Z,5.80
2017-11-20T12:07:00.859Z,5.67
2017-11-20T12:09:28.414Z,5.70
2017-11-20T12:11:56.029Z,6.60
2017-11-20T12:14:23.594Z,6.20
2017-11-20T12:16:51.489Z,6.10
2017-11-20T12:19:19.811Z,7.00
2017-11-20T12:21:50.012Z,5.20
2017-11-20T12:24:17.645Z,5.70
2017-11-20T12:26:47.406Z,8.93
2017-11-20T12:29:15.133Z,5.90
2017-11-20T12:31:43.471Z,7.00
2017-11-20T12:34:11.051Z,4.77
2017-11-20T12:36:38.617Z,5.87
2017-11-20T12:39:06.174Z,6.20
2017-11-20T12:41:34.297Z,5.30
2017-11-20T12:44:01.854Z,5.37
2017-11-20T12:46:29.408Z,4.67
2017-11-20T12:48:57.783Z,5.70
2017-11-20T12:51:25.348Z,6.30
2017-11-20T12:53:52.923Z,4.73
2017-11-20T12:56:20.539Z,5.70
2017-11-20T12:58:49.021Z,5.90
2017-11-20T13:01:16.567Z,6.00
2017-11-20T13:03:44.142Z,5.27
2017-11-20T13:06:12.479Z,4.70
2017-11-20T13:08:40.043Z,5.00
2017-11-20T13:11:07.591Z,5.30
2017-11-20T13:13:35.183Z,5.53
2017-11-20T13:16:02.750Z,5.70
2017-11-20T13:18:30.316Z,4.33
2017-11-20T13:20:57.887Z,5.60
2017-11-20T13:23:26.222Z,5.20
2017-11-20T13:25:53.831Z,5.43
2017-11-20T13:28:22.170Z,6.43
2017-11-20T13:30:49.747Z,5.77
2017-11-20T13:33:17.319Z,4.93
2017-11-20T13:35:44.931Z,4.90
2017-11-20T13:38:12.516Z,7.63
2017-11-20T13:40:40.121Z,5.13
2017-11-20T13:43:08.451Z,5.90
2017-11-20T13:45:36.044Z,6.73
2017-11-20T13:48:03.625Z,8.00
2017-11-20T13:50:31.951Z,6.93
2017-11-20T13:52:59.559Z,6.90
2017-11-20T13:55:27.932Z,7.70
2017-11-20T13:57:55.494Z,7.10
2017-11-20T14:00:23.823Z,6.30
2017-11-20T14:02:51.931Z,7.67
2017-11-20T14:05:19.511Z,9.60
2017-11-20T14:07:47.877Z,7.93
2017-11-20T14:10:15.467Z,10.70
2017-11-20T14:12:48.700Z,8.30
2017-11-20T14:15:16.295Z,13.77
2017-11-20T14:17:43.868Z,6.70
2017-11-20T14:20:12.236Z,11.50
2017-11-20T14:22:39.868Z,7.43
2017-11-20T14:25:07.452Z,6.83
2017-11-20T14:27:35.063Z,11.90
2017-11-20T14:30:04.377Z,6.93
2017-11-20T14:32:33.286Z,6.93
2017-11-20T14:35:00.863Z,7.87
2017-11-20T14:37:28.442Z,8.23
2017-11-20T14:39:56.784Z,8.10
2017-11-20T14:42:24.319Z,7.00
2017-11-20T14:44:51.929Z,13.27
2017-11-20T14:47:20.651Z,8.90
2017-11-20T14:49:48.851Z,10.00
2017-11-20T14:52:17.896Z,6.70
2017-11-20T14:54:46.355Z,7.23
2017-11-20T14:57:16.558Z,9.73
2017-11-20T14:59:52.359Z,8.67
2017-11-20T15:02:21.538Z,10.77
2017-11-20T15:04:50.648Z,8.97
2017-11-20T15:07:29.682Z,9.83
2017-11-20T15:09:58.116Z,7.60
2017-11-20T15:12:25.736Z,7.83
2017-11-20T15:14:53.290Z,7.50
2017-11-20T15:17:21.660Z,7.70
2017-11-20T15:19:49.263Z,6.20
2017-11-20T15:22:16.847Z,6.73
2017-11-20T15:24:45.158Z,7.87
2017-11-20T15:27:12.777Z,7.43
2017-11-20T15:29:40.550Z,7.13
2017-11-20T15:32:14.685Z,10.67
2017-11-20T15:34:42.219Z,8.17
2017-11-20T15:37:13.002Z,10.63
2017-11-20T15:39:40.654Z,6.43
2017-11-20T15:42:08.268Z,7.97
2017-11-20T15:44:36.236Z,7.20
2017-11-20T15:47:03.855Z,7.07
2017-11-20T15:49:31.516Z,6.23
2017-11-20T15:51:59.080Z,6.77
2017-11-20T15:54:26.659Z,6.57
2017-11-20T15:56:55.013Z,7.33
2017-11-20T15:59:27.139Z,10.37
2017-11-20T16:01:54.762Z,6.80
2017-11-20T16:04:23.375Z,7.97
2017-11-20T16:06:51.147Z,6.43
2017-11-20T16:09:18.752Z,5.90
2017-11-20T16:11:46.354Z,6.67
2017-11-20T16:14:14.802Z,7.43
2017-11-20T16:16:42.398Z,6.60
2017-11-20T16:19:09.992Z,7.27
2017-11-20T16:21:37.579Z,6.43
2017-11-20T16:24:05.146Z,6.83
2017-11-20T16:26:32.750Z,7.30
2017-11-20T16:29:01.141Z,7.27
2017-11-20T16:31:28.745Z,7.27
2017-11-20T16:33:56.337Z,6.17
2017-11-20T16:36:29.257Z,6.80
2017-11-20T16:38:58.708Z,6.17
2017-11-20T16:41:26.314Z,6.07
2017-11-20T16:43:56.567Z,9.60
2017-11-20T16:46:24.132Z,6.83
2017-11-20T16:48:51.703Z,6.57
2017-11-20T16:51:19.300Z,6.40
2017-11-20T16:53:46.888Z,7.57
2017-11-20T16:56:14.476Z,5.80
2017-11-20T16:58:48.964Z,5.77
2017-11-20T17:01:29.097Z,6.50
2017-11-20T17:03:57.519Z,7.57
2017-11-20T17:06:29.122Z,5.37
2017-11-20T17:08:56.816Z,7.27
2017-11-20T17:11:24.894Z,5.00
2017-11-20T17:13:52.514Z,5.70
2017-11-20T17:16:21.703Z,5.40
2017-11-20T17:18:49.590Z,6.07
2017-11-20T17:21:17.965Z,5.80
2017-11-20T17:23:46.447Z,5.70
2017-11-20T17:26:15.060Z,4.57
2017-11-20T17:28:42.660Z,5.17
2017-11-20T17:31:10.330Z,5.33
2017-11-20T17:33:37.944Z,4.37
2017-11-20T17:36:05.581Z,5.30
2017-11-20T17:38:33.955Z,5.30
2017-11-20T17:41:02.282Z,5.33
2017-11-20T17:43:29.859Z,5.10
2017-11-20T17:45:57.493Z,6.20
2017-11-20T17:48:25.172Z,7.07
2017-11-20T17:50:52.800Z,5.20
2017-11-20T17:53:20.402Z,4.97
2017-11-20T17:55:48.366Z,5.90
2017-11-20T17:58:16.678Z,8.00
2017-11-20T18:00:44.262Z,5.33
2017-11-20T18:03:12.588Z,4.90
2017-11-20T18:05:40.411Z,4.90
2017-11-20T18:08:08.024Z,5.60
2017-11-20T18:10:35.648Z,4.67
2017-11-20T18:13:03.232Z,6.10
2017-11-20T18:15:30.835Z,6.40
2017-11-20T18:17:59.477Z,5.23
2017-11-20T18:20:32.352Z,6.67
2017-11-20T18:23:02.218Z,8.93
2017-11-20T18:25:33.953Z,7.83
2017-11-20T18:28:01.571Z,5.57
2017-11-20T18:30:29.167Z,5.80
2017-11-20T18:32:57.181Z,5.53
2017-11-20T18:35:24.751Z,6.77
2017-11-20T18:37:53.125Z,5.50
2017-11-20T18:40:21.462Z,4.90
2017-11-20T18:42:49.131Z,4.90
2017-11-20T18:45:16.712Z,7.03
2017-11-20T18:47:45.465Z,5.97
2017-11-20T18:50:13.067Z,7.97
2017-11-20T18:52:40.647Z,5.10
2017-11-20T18:55:09.290Z,5.77
2017-11-20T18:57:36.909Z,4.73
2017-11-20T19:00:17.734Z,8.07
2017-11-20T19:02:57.848Z,9.40
2017-11-20T19:05:38.193Z,8.20
2017-11-20T19:08:30.746Z,6.27
2017-11-20T19:10:59.334Z,4.83
2017-11-20T19:16:00.033Z,5.33
2017-11-20T19:18:27.634Z,4.70
2017-11-20T19:20:55.241Z,5.50
2017-11-20T19:23:22.821Z,4.70
2017-11-20T19:25:50.495Z,5.17
2017-11-20T19:28:18.991Z,5.20
2017-11-20T19:30:46.605Z,5.77
2017-11-20T19:33:14.217Z,6.10
2017-11-20T19:35:41.811Z,5.40
2017-11-20T19:38:09.684Z,7.30
2017-11-20T19:40:38.519Z,6.80
2017-11-20T19:43:06.167Z,6.10
2017-11-20T19:45:33.796Z,6.03
2017-11-20T19:48:01.590Z,5.80
2017-11-20T19:50:29.565Z,6.77
2017-11-20T19:52:57.184Z,7.53
2017-11-20T19:55:24.753Z,7.80
2017-11-20T19:57:52.355Z,6.77
2017-11-20T20:00:19.937Z,8.17
2017-11-20T20:02:48.408Z,7.80
2017-11-20T20:05:17.271Z,9.53
2017-11-20T20:07:46.491Z,9.57
2017-11-20T20:10:14.158Z,8.07
2017-11-20T20:12:42.664Z,7.50
2017-11-20T20:15:31.753Z,8.93
2017-11-20T20:17:59.362Z,10.03
2017-11-20T20:20:26.944Z,7.47
2017-11-20T20:22:55.359Z,9.00
2017-11-20T20:25:22.959Z,9.20
2017-11-20T20:27:50.601Z,10.90
2017-11-20T20:30:18.195Z,8.90
2017-11-20T20:32:45.776Z,8.27
2017-11-20T20:35:14.126Z,9.03
2017-11-20T20:37:41.688Z,9.03
2017-11-20T20:40:09.299Z,8.30
2017-11-20T20:42:37.373Z,9.80
2017-11-20T20:45:05.796Z,11.40
2017-11-20T20:47:35.563Z,10.83
2017-11-20T20:50:06.467Z,11.20
2017-11-20T20:52:34.848Z,7.80
2017-11-20T20:55:03.256Z,7.97
2017-11-20T20:57:30.861Z,8.00
2017-11-20T20:59:58.476Z,8.40
2017-11-20T21:02:26.609Z,10.23
2017-11-20T21:04:54.327Z,8.07
2017-11-20T21:07:22.064Z,7.10
2017-11-20T21:09:56.044Z,8.63
2017-11-20T21:12:23.823Z,8.07
2017-11-20T21:14:51.441Z,7.33
2017-11-20T21:17:19.095Z,6.30
2017-11-20T21:19:46.776Z,6.87
2017-11-20T21:22:14.437Z,7.27
2017-11-20T21:24:42.141Z,6.53
2017-11-20T21:27:10.564Z,6.57
2017-11-20T21:29:38.189Z,6.50
2017-11-20T21:32:06.539Z,6.40
2017-11-20T21:34:34.174Z,6.30
2017-11-20T21:37:01.813Z,6.40
2017-11-20T21:39:29.464Z,5.90
2017-11-20T21:41:57.108Z,5.60
2017-11-20T21:44:25.693Z,5.37
2017-11-20T21:46:54.054Z,6.00
2017-11-20T21:49:21.779Z,4.97
2017-11-20T21:51:49.371Z,6.00
2017-11-20T21:54:17.017Z,5.90
2017-11-20T21:56:44.646Z,4.93
2017-11-20T21:59:12.227Z,5.70
2017-11-20T22:01:39.945Z,5.97
2017-11-20T22:04:08.283Z,5.83
2017-11-20T22:06:35.916Z,6.30
2017-11-20T22:09:03.498Z,6.60
2017-11-20T22:11:31.073Z,5.47
2017-11-20T22:13:58.615Z,6.80
2017-11-20T22:16:26.222Z,5.47
2017-11-20T22:18:53.829Z,6.17
2017-11-20T22:21:22.489Z,5.93
2017-11-20T22:23:50.812Z,5.53
2017-11-20T22:26:18.404Z,5.27
2017-11-20T22:28:45.964Z,5.63
2017-11-20T22:31:13.556Z,5.00
2017-11-20T22:33:41.954Z,5.20
2017-11-20T22:36:10.342Z,5.10
2017-11-20T22:38:37.941Z,4.80
2017-11-20T22:41:05.504Z,5.50
2017-11-20T22:43:33.168Z,5.27
2017-11-20T22:46:00.740Z,5.33
2017-11-20T22:48:28.679Z,5.30
2017-11-20T22:50:56.256Z,5.53
2017-11-20T22:53:23.842Z,4.97
2017-11-20T22:55:52.186Z,4.77
2017-11-20T22:58:19.861Z,5.30
2017-11-20T23:00:48.331Z,5.00
2017-11-20T23:03:15.971Z,5.40
2017-11-20T23:05:43.653Z,4.83
2017-11-20T23:08:11.258Z,5.10
2017-11-20T23:10:39.634Z,4.23
2017-11-20T23:13:08.053Z,4.27
2017-11-20T23:15:35.692Z,5.20
2017-11-20T23:18:03.248Z,7.67
2017-11-20T23:20:31.587Z,5.07
2017-11-20T23:22:59.272Z,5.80
2017-11-20T23:25:27.624Z,6.93
2017-11-20T23:27:55.235Z,7.47
2017-11-20T23:30:22.835Z,7.07
2017-11-20T23:32:50.442Z,7.13
2017-11-20T23:35:18.792Z,7.10
2017-11-20T23:37:46.610Z,7.03
2017-11-20T23:40:14.168Z,6.30
2017-11-20T23:42:41.790Z,6.77
2017-11-20T23:45:09.360Z,7.70
2017-11-20T23:47:36.990Z,7.47
2017-11-20T23:50:04.563Z,6.90
2017-11-20T23:52:32.143Z,7.40
2017-11-20T23:54:59.704Z,7.30
2017-11-20T23:57:27.260Z,6.53
2017-11-20T23:59:54.842Z,9.53
